createdAt,value
2023-04-28T00:00:42.893Z,964.3669
2023-04-28T00:01:45.489Z,964.3577
2023-04-28T00:02:48.160Z,964.3469
2023-04-28T00:03:50.838Z,964.3323
2023-04-28T00:04:53.449Z,964.3123
2023-04-28T00:07:49.539Z,964.2557
2023-04-28T00:08:51.951Z,964.2446
2023-04-28T00:09:54.550Z,964.2523
2023-04-28T00:10:57.178Z,964.2577
2023-04-28T00:11:59.751Z,964.2500
2023-04-28T00:13:02.378Z,964.2554
2023-04-28T00:14:04.973Z,964.2615
2023-04-28T00:15:07.591Z,964.2608
2023-04-28T00:16:10.226Z,964.2623
2023-04-28T00:17:12.844Z,964.2570
2023-04-28T00:20:13.751Z,964.2386
2023-04-28T00:21:16.391Z,964.2208
2023-04-28T00:24:02.841Z,964.2007
2023-04-28T00:25:05.716Z,964.1885
2023-04-28T00:26:08.073Z,964.1885
2023-04-28T00:27:10.628Z,964.1823
2023-04-28T00:28:18.364Z,964.1677
2023-04-28T00:29:15.848Z,964.1723
2023-04-28T00:30:18.489Z,964.1746
2023-04-28T00:31:21.080Z,964.1715
2023-04-28T00:32:23.723Z,964.1469
2023-04-28T00:33:26.264Z,964.1477
2023-04-28T00:34:28.896Z,964.1638
2023-04-28T00:35:31.477Z,964.1792
2023-04-28T00:36:34.125Z,964.1785
2023-04-28T00:37:36.690Z,964.1592
2023-04-28T00:38:39.333Z,964.1415
2023-04-28T00:39:41.913Z,964.1238
2023-04-28T00:40:44.546Z,964.1069
2023-04-28T00:41:47.103Z,964.0862
2023-04-28T00:42:49.741Z,964.0908
2023-04-28T00:43:52.317Z,964.1130
2023-04-28T00:44:54.961Z,964.1308
2023-04-28T00:45:57.585Z,964.1431
2023-04-28T00:47:00.184Z,964.1508
2023-04-28T00:48:02.766Z,964.1277
2023-04-28T00:49:05.581Z,964.0807
2023-04-28T00:50:07.962Z,964.0700
2023-04-28T00:51:10.586Z,964.0515
2023-04-28T00:52:13.154Z,964.0392
2023-04-28T00:53:15.799Z,964.0285
2023-04-28T00:54:18.617Z,964.0070
2023-04-28T00:55:21.000Z,964.0300
2023-04-28T00:56:23.579Z,964.0162
2023-04-28T00:57:26.208Z,963.9838
2023-04-28T00:59:38.886Z,964.0286
2023-04-28T01:00:41.519Z,964.0600
2023-04-28T01:01:44.177Z,964.0723
2023-04-28T01:02:46.886Z,964.0831
2023-04-28T01:03:49.570Z,964.0792
2023-04-28T01:04:51.958Z,964.0300
2023-04-28T01:05:54.530Z,963.9662
2023-04-28T01:06:57.159Z,963.9677
2023-04-28T01:07:59.742Z,963.9892
2023-04-28T01:09:02.357Z,964.0054
2023-04-28T01:10:04.943Z,963.9708
2023-04-28T01:11:07.573Z,963.9392
2023-04-28T01:12:10.161Z,963.9285
2023-04-28T01:13:12.783Z,963.9623
2023-04-28T01:14:15.776Z,963.9954
2023-04-28T01:15:18.057Z,964.0015
2023-04-28T01:16:20.626Z,963.9730
2023-04-28T01:17:23.240Z,963.9338
2023-04-28T01:18:25.797Z,963.8800
2023-04-28T01:19:28.425Z,963.8508
2023-04-28T01:20:31.003Z,963.8285
2023-04-28T01:21:33.639Z,963.8446
2023-04-28T01:22:36.220Z,963.8530
2023-04-28T01:23:38.931Z,963.8654
2023-04-28T01:24:41.440Z,963.8900
2023-04-28T01:25:44.056Z,963.8870
2023-04-28T01:26:46.647Z,963.8554
2023-04-28T01:27:49.282Z,963.8177
2023-04-28T01:28:52.074Z,963.8100
2023-04-28T01:29:54.487Z,963.8446
2023-04-28T01:30:57.061Z,963.8630
2023-04-28T01:31:59.798Z,963.8669
2023-04-28T01:33:02.300Z,963.8623
2023-04-28T01:34:04.901Z,963.8362
2023-04-28T01:35:07.480Z,963.8123
2023-04-28T01:36:10.113Z,963.7946
2023-04-28T01:37:12.715Z,963.7953
2023-04-28T01:38:15.332Z,963.7961
2023-04-28T01:39:17.965Z,963.8077
2023-04-28T01:40:20.529Z,963.8069
2023-04-28T01:41:23.110Z,963.8277
2023-04-28T01:42:25.746Z,963.8331
2023-04-28T01:43:28.328Z,963.8416
2023-04-28T01:44:30.943Z,963.8538
2023-04-28T01:45:33.752Z,963.8608
2023-04-28T01:46:36.171Z,963.8831
2023-04-28T01:47:38.830Z,963.9146
2023-04-28T01:48:41.393Z,963.9238
2023-04-28T01:49:45.977Z,963.9285
2023-04-28T01:50:46.572Z,963.9315
2023-04-28T01:51:49.139Z,963.9462
2023-04-28T01:52:51.761Z,963.9308
2023-04-28T01:53:54.325Z,963.8839
2023-04-28T01:54:56.962Z,963.8347
2023-04-28T01:55:59.534Z,963.8008
2023-04-28T01:57:02.166Z,963.7854
2023-04-28T01:58:04.745Z,963.7992
2023-04-28T01:59:07.383Z,963.8023
2023-04-28T02:01:39.396Z,963.8129
2023-04-28T02:02:42.030Z,963.7992
2023-04-28T02:03:44.723Z,963.8077
2023-04-28T02:04:47.229Z,963.8392
2023-04-28T02:05:49.756Z,963.8385
2023-04-28T02:06:52.371Z,963.8277
2023-04-28T02:07:54.955Z,963.8138
2023-04-28T02:08:57.598Z,963.8162
2023-04-28T02:10:00.152Z,963.8508
2023-04-28T02:11:02.792Z,963.8900
2023-04-28T02:12:05.369Z,963.9054
2023-04-28T02:13:08.000Z,963.9153
2023-04-28T02:14:10.581Z,963.9362
2023-04-28T02:15:13.203Z,963.9523
2023-04-28T02:16:15.802Z,963.9108
2023-04-28T02:17:18.419Z,963.8369
2023-04-28T02:18:20.996Z,963.7908
2023-04-28T02:19:23.628Z,963.8085
2023-04-28T02:20:26.176Z,963.8538
2023-04-28T02:21:28.831Z,963.8615
2023-04-28T02:22:31.390Z,963.8546
2023-04-28T02:23:34.023Z,963.8408
2023-04-28T02:24:36.598Z,963.8339
2023-04-28T02:25:39.199Z,963.8484
2023-04-28T02:26:41.793Z,963.8315
2023-04-28T02:27:44.399Z,963.8162
2023-04-28T02:28:47.008Z,963.8246
2023-04-28T02:29:49.610Z,963.8431
2023-04-28T02:30:52.202Z,963.8423
2023-04-28T02:31:54.988Z,963.8416
2023-04-28T02:32:57.469Z,963.8315
2023-04-28T02:34:00.017Z,963.8431
2023-04-28T02:35:02.592Z,963.8461
2023-04-28T02:36:05.421Z,963.8208
2023-04-28T02:37:07.814Z,963.8154
2023-04-28T02:38:10.408Z,963.7931
2023-04-28T02:39:12.982Z,963.7977
2023-04-28T02:40:15.618Z,963.7639
2023-04-28T02:41:18.184Z,963.7354
2023-04-28T02:42:20.833Z,963.7646
2023-04-28T02:43:23.403Z,963.7977
2023-04-28T02:44:26.028Z,963.8130
2023-04-28T02:45:28.614Z,963.8254
2023-04-28T02:46:31.234Z,963.8177
2023-04-28T02:47:33.826Z,963.8446
2023-04-28T02:48:36.433Z,963.8585
2023-04-28T02:49:39.044Z,963.8600
2023-04-28T02:50:41.640Z,963.8477
2023-04-28T02:51:44.225Z,963.8300
2023-04-28T02:52:48.960Z,963.8054
2023-04-28T02:53:49.444Z,963.7823
2023-04-28T02:54:52.072Z,963.7961
2023-04-28T02:55:54.658Z,963.7985
2023-04-28T02:56:57.272Z,963.7923
2023-04-28T02:57:59.861Z,963.8030
2023-04-28T02:59:02.484Z,963.8239
2023-04-28T03:00:05.134Z,963.8431
2023-04-28T03:01:07.752Z,963.8508
2023-04-28T03:02:10.272Z,963.8592
2023-04-28T03:03:13.292Z,963.8462
2023-04-28T03:04:15.947Z,963.8262
2023-04-28T03:05:18.106Z,963.7885
2023-04-28T03:06:20.681Z,963.7708
2023-04-28T03:07:23.302Z,963.7654
2023-04-28T03:08:25.893Z,963.7454
2023-04-28T03:09:28.496Z,963.7600
2023-04-28T03:10:31.077Z,963.7777
2023-04-28T03:11:33.704Z,963.8208
2023-04-28T03:12:36.291Z,963.8315
2023-04-28T03:13:38.914Z,963.8200
2023-04-28T03:14:41.496Z,963.8177
2023-04-28T03:15:44.135Z,963.8369
2023-04-28T03:16:46.756Z,963.8561
2023-04-28T03:17:49.391Z,963.8569
2023-04-28T03:18:51.897Z,963.8530
2023-04-28T03:19:54.529Z,963.8446
2023-04-28T03:20:57.120Z,963.8561
2023-04-28T03:21:59.754Z,963.8608
2023-04-28T03:23:02.412Z,963.8531
2023-04-28T03:24:05.870Z,963.8600
2023-04-28T03:25:07.516Z,963.8461
2023-04-28T03:26:10.150Z,963.8408
2023-04-28T03:27:12.745Z,963.8646
2023-04-28T03:28:15.356Z,963.8862
2023-04-28T03:29:17.930Z,963.9100
2023-04-28T03:30:20.556Z,963.8969
2023-04-28T03:31:23.146Z,963.9023
2023-04-28T03:32:25.790Z,963.8908
2023-04-28T03:33:28.347Z,963.8661
2023-04-28T03:34:30.959Z,963.8723
2023-04-28T03:35:33.540Z,963.8854
2023-04-28T03:36:36.158Z,963.8592
2023-04-28T03:37:38.791Z,963.8685
2023-04-28T03:38:41.370Z,963.8646
2023-04-28T03:39:43.946Z,963.8484
2023-04-28T03:40:46.566Z,963.8362
2023-04-28T03:41:49.141Z,963.8623
2023-04-28T03:42:51.769Z,963.8770
2023-04-28T03:43:54.356Z,963.8600
2023-04-28T03:44:56.970Z,963.8500
2023-04-28T03:45:59.594Z,963.8270
2023-04-28T03:47:02.211Z,963.8185
2023-04-28T03:48:04.809Z,963.8208
2023-04-28T03:49:07.407Z,963.8100
2023-04-28T03:50:10.006Z,963.8215
2023-04-28T03:51:12.586Z,963.8500
2023-04-28T03:52:15.323Z,963.8892
2023-04-28T03:53:17.786Z,963.8969
2023-04-28T03:54:20.373Z,963.9069
2023-04-28T03:55:23.001Z,963.9315
2023-04-28T03:56:25.608Z,963.9554
2023-04-28T03:57:28.187Z,963.9385
2023-04-28T03:58:30.780Z,963.8885
2023-04-28T03:59:33.393Z,963.8708
2023-04-28T04:00:35.972Z,963.8692
2023-04-28T04:01:38.596Z,963.8546
2023-04-28T04:02:41.343Z,963.8692
2023-04-28T04:03:44.124Z,963.8708
2023-04-28T04:04:46.515Z,963.8738
2023-04-28T04:05:49.094Z,963.8577
2023-04-28T04:06:51.596Z,963.8569
2023-04-28T04:07:54.221Z,963.8354
2023-04-28T04:08:56.841Z,963.8554
2023-04-28T04:10:00.154Z,963.8723
2023-04-28T04:11:02.015Z,963.8831
2023-04-28T04:12:04.841Z,963.9008
2023-04-28T04:13:07.520Z,963.9146
2023-04-28T04:14:09.893Z,963.9061
2023-04-28T04:15:12.638Z,963.9008
2023-04-28T04:16:15.087Z,963.9008
2023-04-28T04:17:17.637Z,963.9077
2023-04-28T04:18:20.548Z,963.9000
2023-04-28T04:19:22.860Z,963.8839
2023-04-28T04:20:25.468Z,963.9008
2023-04-28T04:21:28.041Z,963.8977
2023-04-28T04:22:30.733Z,963.8962
2023-04-28T04:23:33.264Z,963.9092
2023-04-28T04:24:35.874Z,963.9161
2023-04-28T04:25:38.474Z,963.9061
2023-04-28T04:26:41.081Z,963.8900
2023-04-28T04:27:43.658Z,963.8661
2023-04-28T04:28:46.287Z,963.8439
2023-04-28T04:29:48.843Z,963.8292
2023-04-28T04:30:51.511Z,963.8215
2023-04-28T04:31:54.102Z,963.8239
2023-04-28T04:32:56.719Z,963.8308
2023-04-28T04:33:59.265Z,963.8331
2023-04-28T04:35:01.884Z,963.8416
2023-04-28T04:36:04.455Z,963.8446
2023-04-28T04:37:07.098Z,963.8508
2023-04-28T04:38:09.686Z,963.8677
2023-04-28T04:39:12.301Z,963.8723
2023-04-28T04:40:14.868Z,963.8792
2023-04-28T04:41:17.498Z,963.8777
2023-04-28T04:42:25.306Z,963.8954
2023-04-28T04:43:22.671Z,963.9153
2023-04-28T04:44:25.303Z,963.9254
2023-04-28T04:45:27.868Z,963.9254
2023-04-28T04:46:30.560Z,963.9261
2023-04-28T04:47:33.192Z,963.9338
2023-04-28T04:48:35.711Z,963.9292
2023-04-28T04:49:38.280Z,963.9208
2023-04-28T04:50:40.923Z,963.9092
2023-04-28T04:51:43.509Z,963.9031
2023-04-28T04:52:46.119Z,963.9230
2023-04-28T04:53:48.712Z,963.9230
2023-04-28T04:54:51.321Z,963.8977
2023-04-28T04:55:53.886Z,963.8892
2023-04-28T04:56:56.513Z,963.8900
2023-04-28T04:57:59.118Z,963.8931
2023-04-28T04:59:01.729Z,963.9046
2023-04-28T05:00:04.314Z,963.9146
2023-04-28T05:01:06.931Z,963.9185
2023-04-28T05:02:09.690Z,963.9230
2023-04-28T05:03:12.261Z,963.9185
2023-04-28T05:04:15.006Z,963.9146
2023-04-28T05:05:21.106Z,963.9161
2023-04-28T05:06:19.916Z,963.9269
2023-04-28T05:07:22.551Z,963.9708
2023-04-28T05:08:25.122Z,963.9692
2023-04-28T05:09:27.779Z,963.9708
2023-04-28T05:10:30.331Z,963.9684
2023-04-28T05:11:32.946Z,963.9885
2023-04-28T05:12:35.508Z,963.9930
2023-04-28T05:13:38.137Z,964.0070
2023-04-28T05:14:40.709Z,964.0085
2023-04-28T05:15:43.341Z,964.0146
2023-04-28T05:16:45.988Z,964.0269
2023-04-28T05:17:48.547Z,964.0262
2023-04-28T05:18:51.117Z,964.0300
2023-04-28T05:19:53.802Z,964.0170
2023-04-28T05:20:56.323Z,964.0054
2023-04-28T05:21:58.961Z,963.9869
2023-04-28T05:23:01.553Z,964.0031
2023-04-28T05:24:04.149Z,964.0000
2023-04-28T05:25:06.719Z,964.0154
2023-04-28T05:26:09.355Z,964.0323
2023-04-28T05:27:11.915Z,964.0438
2023-04-28T05:28:14.558Z,964.0600
2023-04-28T05:29:17.137Z,964.0831
2023-04-28T05:30:19.734Z,964.1008
2023-04-28T05:31:22.360Z,964.1161
2023-04-28T05:32:24.990Z,964.1000
2023-04-28T05:33:27.528Z,964.0885
2023-04-28T05:34:30.144Z,964.0877
2023-04-28T05:35:32.716Z,964.0823
2023-04-28T05:36:35.338Z,964.1008
2023-04-28T05:37:37.910Z,964.0885
2023-04-28T05:38:40.551Z,964.0847
2023-04-28T05:39:43.111Z,964.0562
2023-04-28T05:40:45.747Z,964.0339
2023-04-28T05:41:48.373Z,964.0469
2023-04-28T05:42:50.966Z,964.0770
2023-04-28T05:43:53.529Z,964.0931
2023-04-28T05:44:56.156Z,964.1277
2023-04-28T05:45:58.744Z,964.1262
2023-04-28T05:47:01.675Z,964.1270
2023-04-28T05:48:03.964Z,964.1516
2023-04-28T05:49:06.544Z,964.1877
2023-04-28T05:50:09.112Z,964.1885
2023-04-28T05:51:11.753Z,964.1962
2023-04-28T05:52:14.339Z,964.2169
2023-04-28T05:53:16.941Z,964.2285
2023-04-28T05:54:19.669Z,964.2062
2023-04-28T05:55:22.146Z,964.1970
2023-04-28T05:56:24.819Z,964.1830
2023-04-28T05:57:31.987Z,964.1985
2023-04-28T05:58:29.929Z,964.2092
2023-04-28T05:59:32.557Z,964.2039
2023-04-28T06:00:35.130Z,964.2330
2023-04-28T06:01:37.756Z,964.2415
2023-04-28T06:02:40.470Z,964.2408
2023-04-28T06:03:43.016Z,964.2369
2023-04-28T06:04:45.787Z,964.2385
2023-04-28T06:05:48.371Z,964.2223
2023-04-28T06:06:50.826Z,964.2154
2023-04-28T06:07:55.026Z,964.2292
2023-04-28T06:08:56.005Z,964.2323
2023-04-28T06:09:58.629Z,964.2223
2023-04-28T06:11:01.201Z,964.1908
2023-04-28T06:12:03.835Z,964.1962
2023-04-28T06:13:06.416Z,964.2077
2023-04-28T06:14:09.030Z,964.2223
2023-04-28T06:15:11.612Z,964.2462
2023-04-28T06:16:14.251Z,964.2746
2023-04-28T06:17:16.816Z,964.3085
2023-04-28T06:18:19.607Z,964.3162
2023-04-28T06:19:22.015Z,964.3177
2023-04-28T06:20:24.627Z,964.3215
2023-04-28T06:21:27.203Z,964.3454
2023-04-28T06:22:29.826Z,964.3738
2023-04-28T06:23:32.410Z,964.3977
2023-04-28T06:24:35.045Z,964.3908
2023-04-28T06:25:37.602Z,964.3531
2023-04-28T06:26:40.229Z,964.3000
2023-04-28T06:27:42.815Z,964.2769
2023-04-28T06:28:45.449Z,964.2823
2023-04-28T06:29:48.228Z,964.2861
2023-04-28T06:30:50.642Z,964.2923
2023-04-28T06:31:53.283Z,964.2892
2023-04-28T06:32:55.853Z,964.2908
2023-04-28T06:33:58.406Z,964.2869
2023-04-28T06:35:01.033Z,964.2816
2023-04-28T06:36:03.604Z,964.2831
2023-04-28T06:37:06.233Z,964.2823
2023-04-28T06:38:09.001Z,964.2646
2023-04-28T06:39:11.440Z,964.2469
2023-04-28T06:40:14.013Z,964.2392
2023-04-28T06:41:16.637Z,964.2231
2023-04-28T06:42:19.215Z,964.2115
2023-04-28T06:43:21.826Z,964.1908
2023-04-28T06:45:53.803Z,964.1336
2023-04-28T06:46:56.798Z,964.1415
2023-04-28T06:47:59.032Z,964.1447
2023-04-28T06:49:01.621Z,964.1715
2023-04-28T06:50:04.212Z,964.1800
2023-04-28T06:51:06.786Z,964.1870
2023-04-28T06:52:09.542Z,964.1923
2023-04-28T06:53:12.000Z,964.2154
2023-04-28T06:54:14.880Z,964.2308
2023-04-28T06:55:17.176Z,964.2692
2023-04-28T06:56:19.807Z,964.2900
2023-04-28T06:57:22.359Z,964.2839
2023-04-28T06:58:24.997Z,964.2731
2023-04-28T06:59:27.559Z,964.2977
2023-04-28T07:00:30.222Z,964.3023
2023-04-28T07:01:32.913Z,964.2639
2023-04-28T07:02:35.518Z,964.2485
2023-04-28T07:03:38.047Z,964.2330
2023-04-28T07:04:40.620Z,964.2123
2023-04-28T07:05:43.169Z,964.2085
2023-04-28T07:06:45.801Z,964.2161
2023-04-28T07:07:50.415Z,964.1992
2023-04-28T07:10:25.178Z,964.2914
2023-04-28T07:11:27.753Z,964.3239
2023-04-28T07:12:30.371Z,964.3223
2023-04-28T07:13:32.954Z,964.3030
2023-04-28T07:14:35.589Z,964.2892
2023-04-28T07:15:38.162Z,964.3162
2023-04-28T07:16:40.802Z,964.3454
2023-04-28T07:17:43.406Z,964.3646
2023-04-28T07:18:45.997Z,964.4069
2023-04-28T07:19:48.562Z,964.4569
2023-04-28T07:20:51.183Z,964.4861
2023-04-28T07:21:53.751Z,964.4554
2023-04-28T07:22:56.383Z,964.4492
2023-04-28T07:23:58.975Z,964.4246
2023-04-28T07:25:01.590Z,964.4039
2023-04-28T07:26:04.186Z,964.4039
2023-04-28T07:27:06.817Z,964.4031
2023-04-28T07:28:09.355Z,964.3962
2023-04-28T07:29:12.142Z,964.4084
2023-04-28T07:30:26.422Z,964.4362
2023-04-28T07:31:17.203Z,964.4462
2023-04-28T07:32:19.841Z,964.4631
2023-04-28T07:33:22.383Z,964.5015
2023-04-28T07:34:24.949Z,964.5446
2023-04-28T07:35:27.622Z,964.5846
2023-04-28T07:36:30.180Z,964.6092
2023-04-28T07:37:33.234Z,964.6215
2023-04-28T07:38:35.356Z,964.6000
2023-04-28T07:39:37.980Z,964.5554
2023-04-28T07:40:40.574Z,964.5461
2023-04-28T07:41:43.165Z,964.5423
2023-04-28T07:42:45.750Z,964.5477
2023-04-28T07:43:48.392Z,964.5670
2023-04-28T07:44:50.950Z,964.5839
2023-04-28T07:45:53.602Z,964.5854
2023-04-28T07:46:56.155Z,964.5762
2023-04-28T07:47:58.803Z,964.5815
2023-04-28T07:49:01.328Z,964.5585
2023-04-28T07:50:03.951Z,964.5239
2023-04-28T07:51:06.553Z,964.4854
2023-04-28T07:53:10.125Z,964.4700
2023-04-28T07:54:12.418Z,964.4547
2023-04-28T07:55:15.017Z,964.4631
2023-04-28T07:56:17.607Z,964.4585
2023-04-28T07:57:20.236Z,964.4377
2023-04-28T07:58:22.815Z,964.4354
2023-04-28T07:59:25.385Z,964.4677
2023-04-28T08:00:27.989Z,964.4977
2023-04-28T08:01:30.577Z,964.5369
2023-04-28T08:02:33.243Z,964.5692
2023-04-28T08:03:35.893Z,964.5923
2023-04-28T08:04:38.665Z,964.6000
2023-04-28T08:05:40.978Z,964.5984
2023-04-28T08:06:43.634Z,964.6000
2023-04-28T08:07:46.152Z,964.5939
2023-04-28T08:08:48.824Z,964.6262
2023-04-28T08:09:53.730Z,964.6492
2023-04-28T08:10:53.958Z,964.6523
2023-04-28T08:11:56.534Z,964.6392
2023-04-28T08:12:59.159Z,964.6584
2023-04-28T08:14:01.727Z,964.6730
2023-04-28T08:15:04.353Z,964.6792
2023-04-28T08:16:06.981Z,964.6885
2023-04-28T08:17:09.602Z,964.7000
2023-04-28T08:18:12.148Z,964.6970
2023-04-28T08:19:14.765Z,964.6830
2023-04-28T08:20:17.317Z,964.6923
2023-04-28T08:21:20.087Z,964.7192
2023-04-28T08:22:22.527Z,964.7423
2023-04-28T08:23:25.137Z,964.7570
2023-04-28T08:24:27.711Z,964.7608
2023-04-28T08:25:30.337Z,964.7754
2023-04-28T08:26:32.910Z,964.8023
2023-04-28T08:27:35.536Z,964.8123
2023-04-28T08:28:38.133Z,964.8046
2023-04-28T08:29:40.736Z,964.7892
2023-04-28T08:30:43.298Z,964.8123
2023-04-28T08:31:45.995Z,964.8130
2023-04-28T08:32:48.573Z,964.7985
2023-04-28T08:33:51.139Z,964.8208
2023-04-28T08:34:53.689Z,964.8577
2023-04-28T08:35:56.301Z,964.8770
2023-04-28T08:36:58.875Z,964.8723
2023-04-28T08:38:01.513Z,964.8946
2023-04-28T08:39:04.121Z,964.8870
2023-04-28T08:40:06.696Z,964.8669
2023-04-28T08:41:09.277Z,964.8431
2023-04-28T08:42:11.931Z,964.8608
2023-04-28T08:43:14.465Z,964.8608
2023-04-28T08:44:17.410Z,964.8577
2023-04-28T08:45:19.648Z,964.8746
2023-04-28T08:46:22.319Z,964.8808
2023-04-28T08:47:24.871Z,964.8977
2023-04-28T08:49:47.171Z,964.9264
2023-04-28T08:50:49.726Z,964.9277
2023-04-28T08:51:52.350Z,964.9308
2023-04-28T08:52:54.970Z,964.9385
2023-04-28T08:54:19.040Z,964.9539
2023-04-28T08:55:00.161Z,964.9815
2023-04-28T08:56:02.761Z,964.9838
2023-04-28T08:57:05.323Z,964.9669
2023-04-28T08:58:07.972Z,964.9415
2023-04-28T08:59:10.614Z,964.9261
2023-04-28T09:00:13.163Z,964.8892
2023-04-28T09:01:15.713Z,964.8846
2023-04-28T09:02:18.461Z,964.8977
2023-04-28T09:03:21.166Z,964.9185
2023-04-28T09:04:23.847Z,964.9008
2023-04-28T09:05:26.256Z,964.9238
2023-04-28T09:06:28.727Z,964.9246
2023-04-28T09:07:31.307Z,964.9523
2023-04-28T09:08:33.905Z,964.9885
2023-04-28T09:09:39.042Z,965.0015
2023-04-28T09:10:39.086Z,965.0192
2023-04-28T09:11:41.669Z,965.0546
2023-04-28T09:12:44.276Z,965.1077
2023-04-28T09:13:46.835Z,965.1469
2023-04-28T09:14:49.455Z,965.1962
2023-04-28T09:15:52.021Z,965.2708
2023-04-28T09:16:54.720Z,965.3208
2023-04-28T09:17:57.253Z,965.3130
2023-04-28T09:18:59.842Z,965.2877
2023-04-28T09:20:02.393Z,965.3223
2023-04-28T09:21:05.013Z,965.3208
2023-04-28T09:22:18.132Z,965.3138
2023-04-28T09:23:10.200Z,965.2846
2023-04-28T09:24:12.760Z,965.2523
2023-04-28T09:25:15.366Z,965.2261
2023-04-28T09:26:17.945Z,965.1985
2023-04-28T09:27:20.563Z,965.1846
2023-04-28T09:28:23.143Z,965.1738
2023-04-28T09:29:25.755Z,965.1800
2023-04-28T09:30:28.305Z,965.1962
2023-04-28T09:31:30.969Z,965.1923
2023-04-28T09:32:33.496Z,965.2177
2023-04-28T09:33:36.112Z,965.2400
2023-04-28T09:34:38.659Z,965.2315
2023-04-28T09:35:41.275Z,965.2223
2023-04-28T09:36:43.831Z,965.2062
2023-04-28T09:37:46.460Z,965.1654
2023-04-28T09:38:49.028Z,965.1685
2023-04-28T09:39:51.660Z,965.1708
2023-04-28T09:40:54.217Z,965.1569
2023-04-28T09:41:56.811Z,965.1447
2023-04-28T09:43:02.387Z,965.1630
2023-04-28T09:44:01.984Z,965.1685
2023-04-28T09:45:04.599Z,965.1661
2023-04-28T09:46:07.219Z,965.1561
2023-04-28T09:47:09.733Z,965.1577
2023-04-28T09:48:12.414Z,965.1677
2023-04-28T09:49:14.913Z,965.1900
2023-04-28T09:50:17.862Z,965.1946
2023-04-28T09:51:20.099Z,965.2115
2023-04-28T09:52:22.696Z,965.2215
2023-04-28T09:53:25.252Z,965.2131
2023-04-28T09:54:27.866Z,965.2177
2023-04-28T09:55:30.425Z,965.2277
2023-04-28T09:56:33.069Z,965.1862
2023-04-28T09:57:35.618Z,965.1415
2023-04-28T09:58:38.222Z,965.1154
2023-04-28T09:59:40.785Z,965.1192
2023-04-28T10:00:43.412Z,965.1169
2023-04-28T10:01:46.052Z,965.1192
2023-04-28T10:02:48.673Z,965.1177
2023-04-28T10:03:51.225Z,965.1270
2023-04-28T10:04:53.938Z,965.1362
2023-04-28T10:05:56.311Z,965.1577
2023-04-28T10:06:58.923Z,965.1908
2023-04-28T10:08:01.496Z,965.2115
2023-04-28T10:09:04.105Z,965.1923
2023-04-28T10:10:06.667Z,965.1823
2023-04-28T10:11:09.291Z,965.2184
2023-04-28T10:12:11.852Z,965.2369
2023-04-28T10:13:14.449Z,965.2377
2023-04-28T10:14:17.030Z,965.2346
2023-04-28T10:15:19.631Z,965.2085
2023-04-28T10:16:22.227Z,965.1962
2023-04-28T10:17:24.852Z,965.1854
2023-04-28T10:18:27.385Z,965.1923
2023-04-28T10:19:30.002Z,965.1539
2023-04-28T10:20:32.561Z,965.1262
2023-04-28T10:21:35.165Z,965.1177
2023-04-28T10:22:37.754Z,965.1169
2023-04-28T10:23:40.344Z,965.1392
2023-04-28T10:24:42.904Z,965.1415
2023-04-28T10:25:45.536Z,965.1270
2023-04-28T10:26:48.072Z,965.1108
2023-04-28T10:27:50.680Z,965.1138
2023-04-28T10:28:53.270Z,965.1308
2023-04-28T10:29:55.855Z,965.1508
2023-04-28T10:30:58.488Z,965.1584
2023-04-28T10:32:01.044Z,965.1584
2023-04-28T10:33:03.619Z,965.1554
2023-04-28T10:34:06.229Z,965.1254
2023-04-28T10:35:08.785Z,965.1077
2023-04-28T10:36:11.467Z,965.0877
2023-04-28T10:37:13.975Z,965.0707
2023-04-28T10:38:16.589Z,965.0200
2023-04-28T10:39:19.158Z,965.0231
2023-04-28T10:40:21.780Z,965.0316
2023-04-28T10:41:24.350Z,965.0662
2023-04-28T10:42:26.956Z,965.0723
2023-04-28T10:43:29.751Z,965.0623
2023-04-28T10:44:32.119Z,965.0615
2023-04-28T10:45:35.257Z,965.0916
2023-04-28T10:46:37.407Z,965.1177
2023-04-28T10:47:39.919Z,965.1285
2023-04-28T10:48:42.495Z,965.1200
2023-04-28T10:49:45.050Z,965.1154
2023-04-28T10:50:48.644Z,965.1108
2023-04-28T10:51:50.262Z,965.1130
2023-04-28T10:52:52.838Z,965.1061
2023-04-28T10:53:55.401Z,965.0908
2023-04-28T10:54:58.010Z,965.0815
2023-04-28T10:56:00.581Z,965.0700
2023-04-28T10:57:03.189Z,965.0685
2023-04-28T10:58:05.767Z,965.0492
2023-04-28T10:59:08.371Z,965.0247
2023-04-28T11:00:10.936Z,965.0000
2023-04-28T11:02:28.671Z,964.9700
2023-04-28T11:03:31.470Z,964.9661
2023-04-28T11:04:33.796Z,964.9577
2023-04-28T11:05:36.189Z,964.9485
2023-04-28T11:06:38.759Z,964.9169
2023-04-28T11:07:41.396Z,964.8915
2023-04-28T11:08:43.947Z,964.8661
2023-04-28T11:09:46.552Z,964.8569
2023-04-28T11:10:49.119Z,964.8585
2023-04-28T11:11:51.727Z,964.8492
2023-04-28T11:12:54.304Z,964.8315
2023-04-28T11:13:56.937Z,964.8146
2023-04-28T11:14:59.475Z,964.7746
2023-04-28T11:16:02.138Z,964.7570
2023-04-28T11:17:04.666Z,964.7585
2023-04-28T11:18:07.297Z,964.7769
2023-04-28T11:19:09.835Z,964.7946
2023-04-28T11:20:12.452Z,964.8023
2023-04-28T11:21:15.001Z,964.7892
2023-04-28T11:22:17.626Z,964.7961
2023-04-28T11:23:20.174Z,964.7908
2023-04-28T11:24:22.804Z,964.7854
2023-04-28T11:25:25.350Z,964.7700
2023-04-28T11:26:27.972Z,964.7546
2023-04-28T11:27:30.541Z,964.7562
2023-04-28T11:28:33.126Z,964.7538
2023-04-28T11:29:35.695Z,964.7554
2023-04-28T11:30:38.295Z,964.7385
2023-04-28T11:31:40.904Z,964.7361
2023-04-28T11:32:43.536Z,964.7377
2023-04-28T11:33:46.025Z,964.7408
2023-04-28T11:34:48.712Z,964.7292
2023-04-28T11:35:51.219Z,964.7423
2023-04-28T11:36:54.805Z,964.7592
2023-04-28T11:37:56.375Z,964.7700
2023-04-28T11:38:58.988Z,964.7700
2023-04-28T11:40:01.558Z,964.7670
2023-04-28T11:41:04.177Z,964.7808
2023-04-28T11:42:06.746Z,964.7816
2023-04-28T11:43:09.339Z,964.7646
2023-04-28T11:44:12.046Z,964.7577
2023-04-28T11:46:24.624Z,964.7214
2023-04-28T11:47:27.125Z,964.7146
2023-04-28T11:48:29.701Z,964.7408
2023-04-28T11:49:32.272Z,964.7438
2023-04-28T11:50:34.892Z,964.7238
2023-04-28T11:51:37.450Z,964.7077
2023-04-28T11:52:40.048Z,964.6938
2023-04-28T11:53:42.616Z,964.7108
2023-04-28T11:54:45.266Z,964.7308
2023-04-28T11:55:47.793Z,964.7377
2023-04-28T11:56:50.393Z,964.7377
2023-04-28T11:57:52.983Z,964.7146
2023-04-28T11:58:55.569Z,964.6931
2023-04-28T11:59:58.128Z,964.7062
2023-04-28T12:01:00.748Z,964.7139
2023-04-28T12:02:03.373Z,964.6846
2023-04-28T12:03:06.058Z,964.6469
2023-04-28T12:04:08.738Z,964.6331
2023-04-28T12:05:11.131Z,964.6085
2023-04-28T12:06:13.664Z,964.5807
2023-04-28T12:07:16.265Z,964.5654
2023-04-28T12:08:18.812Z,964.5670
2023-04-28T12:09:21.549Z,964.5808
2023-04-28T12:10:23.985Z,964.5739
2023-04-28T12:11:26.602Z,964.5739
2023-04-28T12:12:40.214Z,964.5692
2023-04-28T12:13:31.774Z,964.5284
2023-04-28T12:14:34.337Z,964.5000
2023-04-28T12:15:36.965Z,964.5038
2023-04-28T12:17:59.175Z,964.5043
2023-04-28T12:19:01.723Z,964.4930
2023-04-28T12:20:04.269Z,964.4731
2023-04-28T12:21:06.823Z,964.4639
2023-04-28T12:22:09.434Z,964.4669
2023-04-28T12:23:12.003Z,964.4192
2023-04-28T12:24:14.611Z,964.4039
2023-04-28T12:25:17.437Z,964.4131
2023-04-28T12:26:19.763Z,964.4153
2023-04-28T12:29:05.990Z,964.4229
2023-04-28T12:30:08.576Z,964.4285
2023-04-28T12:31:11.324Z,964.4323
2023-04-28T12:32:13.709Z,964.4315
2023-04-28T12:33:16.326Z,964.4400
2023-04-28T12:34:18.886Z,964.4346